KCZL

Tom B David Field Airport

Calhoun, Georgia, USA
METAR KCZL 171455Z AUTO 00000KT 10SM CLR 08/05 A3025 RMK AO2
Observed Flight Rules
Dec-17 @ 14:55 UTC (28 minutes ago) Visual Flight Rules
Visibility Clouds
10 miles
  • Clear skies
Temperatures Readings
Current 8°C / 46°F
Dewpoint 5°C / 41°F
Humidity 82%
Altimeter 30.25" Hg
Pressure 1024 hPa
Elevation 195
METAR KCZL 171455Z AUTO 00000KT 10SM CLR 08/05 A3025 RMK AO2
Observed Flight Rules
Dec-17 @ 14:55 UTC
(28 minutes ago)
VFR
Clouds
  • Clear skies
Temperature Dewpoint
8°C / 46°F 5°C / 41°F
Humidity Altimeter Pressure
82% 30.25" Hg 1024 hPa